createdAt,value
2019-02-18T00:00:43.881Z,1014.74
2019-02-18T00:02:38.259Z,1014.70
2019-02-18T00:03:38.230Z,1014.69
2019-02-18T00:05:31.615Z,1014.65
2019-02-18T00:06:31.584Z,1014.70
2019-02-18T00:08:26.032Z,1014.70
2019-02-18T00:09:25.987Z,1014.69
2019-02-18T00:11:20.376Z,1014.63
2019-02-18T00:12:20.342Z,1014.73
2019-02-18T00:14:14.722Z,1014.70
2019-02-18T00:15:14.685Z,1014.73
2019-02-18T00:16:14.675Z,1014.71
2019-02-18T00:17:14.664Z,1014.72
2019-02-18T00:18:14.654Z,1014.65
2019-02-18T00:19:14.711Z,1014.75
2019-02-18T00:20:14.635Z,1014.70
2019-02-18T00:21:14.622Z,1014.75
2019-02-18T00:22:14.619Z,1014.74
2019-02-18T00:23:14.600Z,1014.74
2019-02-18T00:24:14.601Z,1014.77
2019-02-18T00:25:14.584Z,1014.71
2019-02-18T00:26:14.559Z,1014.74
2019-02-18T00:27:14.577Z,1014.78
2019-02-18T00:28:14.548Z,1014.71
2019-02-18T00:29:14.549Z,1014.70
2019-02-18T00:30:14.529Z,1014.79
2019-02-18T00:31:14.517Z,1014.73
2019-02-18T00:32:14.510Z,1014.76
2019-02-18T00:33:14.496Z,1014.74
2019-02-18T00:34:14.486Z,1014.79
2019-02-18T00:35:14.472Z,1014.74
2019-02-18T00:36:14.465Z,1014.77
2019-02-18T00:37:23.891Z,1014.82
2019-02-18T00:38:14.444Z,1014.78
2019-02-18T00:39:14.434Z,1014.77
2019-02-18T00:40:14.418Z,1014.78
2019-02-18T00:41:14.420Z,1014.75
2019-02-18T00:42:14.402Z,1014.78
2019-02-18T00:43:14.388Z,1014.75
2019-02-18T00:44:14.377Z,1014.71
2019-02-18T00:45:14.368Z,1014.75
2019-02-18T00:46:14.362Z,1014.72
2019-02-18T00:47:14.354Z,1014.72
2019-02-18T00:48:14.335Z,1014.74
2019-02-18T00:49:14.324Z,1014.72
2019-02-18T00:50:14.312Z,1014.69
2019-02-18T00:51:14.305Z,1014.70
2019-02-18T00:52:14.296Z,1014.74
2019-02-18T00:53:14.282Z,1014.72
2019-02-18T00:54:14.274Z,1014.74
2019-02-18T00:55:14.260Z,1014.70
2019-02-18T00:56:14.248Z,1014.73
2019-02-18T00:57:14.236Z,1014.74
2019-02-18T00:58:14.251Z,1014.74
2019-02-18T00:59:14.215Z,1014.74
2019-02-18T01:00:14.207Z,1014.71
2019-02-18T01:01:14.197Z,1014.70
2019-02-18T01:02:14.181Z,1014.64
2019-02-18T01:03:14.178Z,1014.68
2019-02-18T01:04:14.169Z,1014.66
2019-02-18T01:05:14.156Z,1014.69
2019-02-18T01:06:14.150Z,1014.69
2019-02-18T01:07:14.131Z,1014.64
2019-02-18T01:08:14.122Z,1014.68
2019-02-18T01:09:14.107Z,1014.65
2019-02-18T01:10:14.096Z,1014.68
2019-02-18T01:11:14.091Z,1014.64
2019-02-18T01:12:14.089Z,1014.62
2019-02-18T01:13:14.070Z,1014.64
2019-02-18T01:14:14.062Z,1014.68
2019-02-18T01:15:14.059Z,1014.66
2019-02-18T01:16:14.037Z,1014.57
2019-02-18T01:17:14.035Z,1014.63
2019-02-18T01:18:14.015Z,1014.63
2019-02-18T01:19:14.002Z,1014.61
2019-02-18T01:20:13.989Z,1014.57
2019-02-18T01:21:13.986Z,1014.69
2019-02-18T01:22:49.797Z,1014.66
2019-02-18T01:23:13.961Z,1014.62
2019-02-18T01:24:13.954Z,1014.61
2019-02-18T01:25:13.942Z,1014.70
2019-02-18T01:26:13.921Z,1014.67
2019-02-18T01:27:13.915Z,1014.68
2019-02-18T01:28:13.901Z,1014.65
2019-02-18T01:29:13.891Z,1014.66
2019-02-18T01:30:13.887Z,1014.65
2019-02-18T01:31:13.877Z,1014.69
2019-02-18T01:32:13.850Z,1014.68
2019-02-18T01:33:13.858Z,1014.72
2019-02-18T01:34:13.840Z,1014.63
2019-02-18T01:35:13.838Z,1014.64
2019-02-18T01:36:13.818Z,1014.64
2019-02-18T01:37:13.808Z,1014.64
2019-02-18T01:38:13.800Z,1014.56
2019-02-18T01:39:13.794Z,1014.57
2019-02-18T01:40:13.773Z,1014.57
2019-02-18T01:41:13.758Z,1014.56
2019-02-18T01:42:13.754Z,1014.52
2019-02-18T01:43:13.739Z,1014.55
2019-02-18T01:44:13.730Z,1014.53
2019-02-18T01:45:13.768Z,1014.53
2019-02-18T01:46:13.707Z,1014.46
2019-02-18T01:47:13.694Z,1014.46
2019-02-18T01:48:13.686Z,1014.46
2019-02-18T01:49:13.678Z,1014.45
2019-02-18T01:50:13.662Z,1014.44
2019-02-18T01:51:13.651Z,1014.43
2019-02-18T01:52:13.640Z,1014.44
2019-02-18T01:53:13.626Z,1014.45
2019-02-18T01:54:13.617Z,1014.45
2019-02-18T01:55:13.651Z,1014.42
2019-02-18T01:56:13.596Z,1014.43
2019-02-18T01:57:13.588Z,1014.47
2019-02-18T01:58:13.572Z,1014.46
2019-02-18T01:59:13.562Z,1014.49
2019-02-18T02:00:13.549Z,1014.45
2019-02-18T02:01:13.538Z,1014.42
2019-02-18T02:02:13.531Z,1014.47
2019-02-18T02:03:13.526Z,1014.44
2019-02-18T02:04:13.507Z,1014.45
2019-02-18T02:05:13.493Z,1014.42
2019-02-18T02:06:13.488Z,1014.37
2019-02-18T02:07:13.491Z,1014.39
2019-02-18T02:08:13.465Z,1014.37
2019-02-18T02:09:13.451Z,1014.36
2019-02-18T02:10:13.439Z,1014.33
2019-02-18T02:11:13.424Z,1014.31
2019-02-18T02:12:13.415Z,1014.35
2019-02-18T02:13:13.406Z,1014.30
2019-02-18T02:14:13.399Z,1014.25
2019-02-18T02:15:13.386Z,1014.29
2019-02-18T02:16:13.373Z,1014.26
2019-02-18T02:17:13.363Z,1014.27
2019-02-18T02:18:13.348Z,1014.23
2019-02-18T02:19:13.339Z,1014.19
2019-02-18T02:20:13.334Z,1014.20
2019-02-18T02:21:13.314Z,1014.15
2019-02-18T02:22:13.305Z,1014.18
2019-02-18T02:23:13.298Z,1014.15
2019-02-18T02:24:13.282Z,1014.17
2019-02-18T02:25:13.279Z,1014.16
2019-02-18T02:26:13.264Z,1014.20
2019-02-18T02:27:13.250Z,1014.15
2019-02-18T02:28:13.235Z,1014.14
2019-02-18T02:29:13.258Z,1014.16
2019-02-18T02:30:13.216Z,1014.17
2019-02-18T02:31:13.211Z,1014.13
2019-02-18T02:32:13.206Z,1014.17
2019-02-18T02:33:13.182Z,1014.13
2019-02-18T02:34:13.170Z,1014.15
2019-02-18T02:35:13.176Z,1014.13
2019-02-18T02:36:13.161Z,1014.11
2019-02-18T02:37:13.139Z,1014.12
2019-02-18T02:38:13.149Z,1014.14
2019-02-18T02:39:13.125Z,1014.15
2019-02-18T02:40:13.120Z,1014.18
2019-02-18T02:41:13.096Z,1014.11
2019-02-18T02:42:13.104Z,1014.17
2019-02-18T02:43:13.080Z,1014.14
2019-02-18T02:44:13.060Z,1014.12
2019-02-18T02:45:13.051Z,1014.18
2019-02-18T02:46:13.038Z,1014.13
2019-02-18T02:47:13.026Z,1014.14
2019-02-18T02:48:13.016Z,1014.12
2019-02-18T02:49:13.011Z,1014.11
2019-02-18T02:50:12.990Z,1014.14
2019-02-18T02:51:12.978Z,1014.10
2019-02-18T02:52:12.975Z,1014.09
2019-02-18T02:53:12.958Z,1014.10
2019-02-18T02:54:12.945Z,1014.11
2019-02-18T02:55:12.934Z,1014.15
2019-02-18T02:56:12.919Z,1014.08
2019-02-18T02:57:12.912Z,1014.12
2019-02-18T02:58:12.902Z,1014.12
2019-02-18T02:59:12.894Z,1014.02
2019-02-18T03:00:12.873Z,1014.04
2019-02-18T03:01:12.876Z,1014.03
2019-02-18T03:02:12.855Z,1014.02
2019-02-18T03:03:12.838Z,1013.99
2019-02-18T03:04:12.831Z,1014.00
2019-02-18T03:05:12.820Z,1013.98
2019-02-18T03:06:12.813Z,1013.95
2019-02-18T03:07:12.803Z,1013.96
2019-02-18T03:08:20.438Z,1013.96
2019-02-18T03:09:12.775Z,1013.94
2019-02-18T03:10:12.768Z,1013.92
2019-02-18T03:11:12.758Z,1013.92
2019-02-18T03:12:12.747Z,1013.93
2019-02-18T03:13:12.734Z,1013.91
2019-02-18T03:14:12.722Z,1013.95
2019-02-18T03:15:12.707Z,1013.99
2019-02-18T03:16:12.717Z,1013.94
2019-02-18T03:17:12.722Z,1013.95
2019-02-18T03:18:12.675Z,1013.91
2019-02-18T03:19:12.667Z,1013.97
2019-02-18T03:20:12.657Z,1013.98
2019-02-18T03:21:12.641Z,1013.96
2019-02-18T03:22:12.630Z,1013.97
2019-02-18T03:23:12.619Z,1013.92
2019-02-18T03:24:12.610Z,1013.93
2019-02-18T03:25:12.601Z,1013.90
2019-02-18T03:26:12.584Z,1013.95
2019-02-18T03:27:12.568Z,1013.93
2019-02-18T03:28:12.559Z,1013.93
2019-02-18T03:29:12.546Z,1013.96
2019-02-18T03:30:12.547Z,1013.94
2019-02-18T03:31:12.534Z,1013.92
2019-02-18T03:32:12.519Z,1013.96
2019-02-18T03:33:12.511Z,1013.91
2019-02-18T03:34:12.523Z,1013.94
2019-02-18T03:35:12.485Z,1013.94
2019-02-18T03:36:12.468Z,1013.93
2019-02-18T03:37:12.462Z,1013.96
2019-02-18T03:38:12.451Z,1013.90
2019-02-18T03:39:12.438Z,1013.94
2019-02-18T03:40:12.428Z,1013.95
2019-02-18T03:41:12.420Z,1013.93
2019-02-18T03:42:12.407Z,1013.93
2019-02-18T03:43:12.396Z,1013.95
2019-02-18T03:44:12.386Z,1013.96
2019-02-18T03:45:12.365Z,1013.97
2019-02-18T03:46:12.352Z,1013.95
2019-02-18T03:47:12.353Z,1013.95
2019-02-18T03:48:12.339Z,1013.95
2019-02-18T03:49:12.321Z,1013.92
2019-02-18T03:50:12.311Z,1013.95
2019-02-18T03:51:12.305Z,1013.95
2019-02-18T03:52:12.291Z,1013.92
2019-02-18T03:53:12.278Z,1013.92
2019-02-18T03:54:12.267Z,1013.95
2019-02-18T03:55:12.254Z,1013.94
2019-02-18T03:56:12.249Z,1013.92
2019-02-18T03:57:12.233Z,1013.94
2019-02-18T03:58:12.220Z,1013.91
2019-02-18T03:59:12.210Z,1013.91
2019-02-18T04:00:12.199Z,1013.94
2019-02-18T04:01:12.186Z,1013.95
2019-02-18T04:02:12.177Z,1013.97
2019-02-18T04:03:12.170Z,1013.96
2019-02-18T04:04:12.153Z,1013.96
2019-02-18T04:05:12.143Z,1013.96
2019-02-18T04:06:12.134Z,1013.97
2019-02-18T04:07:12.120Z,1013.93
2019-02-18T04:08:12.105Z,1013.93
2019-02-18T04:09:12.093Z,1013.96
2019-02-18T04:10:12.083Z,1013.98
2019-02-18T04:11:12.091Z,1013.94
2019-02-18T04:12:12.059Z,1013.97
2019-02-18T04:13:12.048Z,1013.90
2019-02-18T04:14:12.039Z,1013.94
2019-02-18T04:15:12.028Z,1013.95
2019-02-18T04:16:12.017Z,1013.96
2019-02-18T04:17:12.004Z,1013.95
2019-02-18T04:18:11.991Z,1013.95
2019-02-18T04:19:11.979Z,1013.88
2019-02-18T04:20:11.967Z,1013.94
2019-02-18T04:21:11.957Z,1013.90
2019-02-18T04:22:11.953Z,1013.91
2019-02-18T04:23:11.938Z,1013.88
2019-02-18T04:24:11.927Z,1013.86
2019-02-18T04:25:11.913Z,1013.88
2019-02-18T04:26:11.906Z,1013.87
2019-02-18T04:27:11.896Z,1013.94
2019-02-18T04:28:11.873Z,1013.93
2019-02-18T04:29:11.866Z,1013.89
2019-02-18T04:30:13.598Z,1013.89
2019-02-18T04:31:11.845Z,1013.86
2019-02-18T04:32:11.829Z,1013.92
2019-02-18T04:33:11.825Z,1013.87
2019-02-18T04:34:11.810Z,1013.87
2019-02-18T04:35:11.801Z,1013.91
2019-02-18T04:36:11.787Z,1013.88
2019-02-18T04:37:11.773Z,1013.85
2019-02-18T04:38:11.763Z,1013.87
2019-02-18T04:39:11.750Z,1013.87
2019-02-18T04:40:11.738Z,1013.89
2019-02-18T04:41:11.729Z,1013.89
2019-02-18T04:42:11.752Z,1013.92
2019-02-18T04:43:11.709Z,1013.91
2019-02-18T04:44:11.700Z,1013.94
2019-02-18T04:45:11.684Z,1013.90
2019-02-18T04:46:11.675Z,1013.90
2019-02-18T04:47:11.662Z,1013.90
2019-02-18T04:48:11.659Z,1013.90
2019-02-18T04:49:11.641Z,1013.88
2019-02-18T04:50:11.624Z,1013.87
2019-02-18T04:51:11.612Z,1013.90
2019-02-18T04:52:11.656Z,1013.87
2019-02-18T04:53:11.590Z,1013.89
2019-02-18T04:54:11.583Z,1013.90
2019-02-18T04:55:11.568Z,1013.93
2019-02-18T04:56:11.558Z,1013.90
2019-02-18T04:57:11.543Z,1013.92
2019-02-18T04:58:11.532Z,1013.92
2019-02-18T04:59:11.519Z,1013.92
2019-02-18T05:00:11.513Z,1013.94
2019-02-18T05:01:11.498Z,1013.93
2019-02-18T05:02:11.484Z,1013.96
2019-02-18T05:03:11.475Z,1013.94
2019-02-18T05:04:14.052Z,1013.96
2019-02-18T05:05:11.445Z,1013.95
2019-02-18T05:06:11.440Z,1013.93
2019-02-18T05:07:11.432Z,1013.96
2019-02-18T05:08:11.416Z,1013.94
2019-02-18T05:09:11.403Z,1013.94
2019-02-18T05:10:11.400Z,1013.91
2019-02-18T05:11:11.396Z,1013.90
2019-02-18T05:12:11.368Z,1013.96
2019-02-18T05:13:11.357Z,1013.97
2019-02-18T05:14:11.351Z,1013.91
2019-02-18T05:15:11.335Z,1013.92
2019-02-18T05:16:11.326Z,1013.95
2019-02-18T05:17:11.310Z,1013.92
2019-02-18T05:18:11.305Z,1013.91
2019-02-18T05:19:11.293Z,1013.95
2019-02-18T05:20:11.281Z,1013.92
2019-02-18T05:21:11.278Z,1013.88
2019-02-18T05:22:11.258Z,1013.90
2019-02-18T05:23:11.259Z,1013.90
2019-02-18T05:24:11.229Z,1013.90
2019-02-18T05:25:12.947Z,1013.90
2019-02-18T05:26:11.209Z,1013.92
2019-02-18T05:27:11.199Z,1013.90
2019-02-18T05:28:11.193Z,1013.91
2019-02-18T05:29:11.180Z,1013.93
2019-02-18T05:30:11.164Z,1013.95
2019-02-18T05:31:11.149Z,1013.92
2019-02-18T05:32:11.143Z,1013.94
2019-02-18T05:33:11.127Z,1013.95
2019-02-18T05:34:11.119Z,1013.91
2019-02-18T05:35:11.101Z,1013.89
2019-02-18T05:36:11.097Z,1013.93
2019-02-18T05:37:11.086Z,1013.85
2019-02-18T05:38:11.070Z,1013.86
2019-02-18T05:39:17.996Z,1013.91
2019-02-18T05:40:11.048Z,1013.85
2019-02-18T05:41:11.039Z,1013.85
2019-02-18T05:42:11.023Z,1013.84
2019-02-18T05:43:11.010Z,1013.85
2019-02-18T05:44:11.874Z,1013.87
2019-02-18T05:45:10.985Z,1013.87
2019-02-18T05:46:10.982Z,1013.88
2019-02-18T05:47:10.971Z,1013.85
2019-02-18T05:48:10.951Z,1013.83
2019-02-18T05:49:10.941Z,1013.86
2019-02-18T05:50:10.930Z,1013.85
2019-02-18T05:51:10.916Z,1013.81
2019-02-18T05:52:10.907Z,1013.88
2019-02-18T05:53:10.903Z,1013.87
2019-02-18T05:54:10.882Z,1013.83
2019-02-18T05:55:10.876Z,1013.84
2019-02-18T05:56:10.877Z,1013.83
2019-02-18T05:57:10.855Z,1013.80
2019-02-18T05:58:10.833Z,1013.81
2019-02-18T05:59:10.830Z,1013.81
2019-02-18T06:00:10.820Z,1013.81
2019-02-18T06:01:10.899Z,1013.79
2019-02-18T06:02:10.786Z,1013.79
2019-02-18T06:03:10.800Z,1013.78
2019-02-18T06:04:10.774Z,1013.78
2019-02-18T06:05:10.775Z,1013.81
2019-02-18T06:06:10.737Z,1013.76
2019-02-18T06:07:10.728Z,1013.76
2019-02-18T06:08:10.715Z,1013.78
2019-02-18T06:09:10.708Z,1013.73
2019-02-18T06:10:10.697Z,1013.74
2019-02-18T06:11:10.683Z,1013.70
2019-02-18T06:12:10.671Z,1013.72
2019-02-18T06:13:10.660Z,1013.70
2019-02-18T06:14:10.647Z,1013.71
2019-02-18T06:15:10.633Z,1013.66
2019-02-18T06:16:10.624Z,1013.65
2019-02-18T06:17:10.612Z,1013.67
2019-02-18T06:18:10.616Z,1013.67
2019-02-18T06:19:10.591Z,1013.66
2019-02-18T06:20:10.582Z,1013.65
2019-02-18T06:21:10.559Z,1013.68
2019-02-18T06:22:10.548Z,1013.66
2019-02-18T06:23:10.541Z,1013.63
2019-02-18T06:24:10.531Z,1013.65
2019-02-18T06:25:10.535Z,1013.65
2019-02-18T06:26:10.507Z,1013.63
2019-02-18T06:27:10.491Z,1013.62
2019-02-18T06:28:10.482Z,1013.59
2019-02-18T06:29:10.478Z,1013.59
2019-02-18T06:30:10.463Z,1013.55
2019-02-18T06:31:10.454Z,1013.55
2019-02-18T06:32:10.436Z,1013.55
2019-02-18T06:33:10.423Z,1013.49
2019-02-18T06:34:10.413Z,1013.50
2019-02-18T06:35:10.402Z,1013.49
2019-02-18T06:36:10.406Z,1013.49
2019-02-18T06:37:10.414Z,1013.50
2019-02-18T06:38:10.366Z,1013.54
2019-02-18T06:39:10.367Z,1013.54
2019-02-18T06:40:10.341Z,1013.53
2019-02-18T06:41:10.328Z,1013.51
2019-02-18T06:42:11.276Z,1013.55
2019-02-18T06:43:10.305Z,1013.51
2019-02-18T06:44:10.293Z,1013.51
2019-02-18T06:45:11.936Z,1013.57
2019-02-18T06:46:10.266Z,1013.55
2019-02-18T06:47:10.257Z,1013.55
2019-02-18T06:48:10.246Z,1013.56
2019-02-18T06:49:10.236Z,1013.55
2019-02-18T06:50:10.229Z,1013.56
2019-02-18T06:51:10.217Z,1013.58
2019-02-18T06:52:10.195Z,1013.58
2019-02-18T06:53:10.192Z,1013.61
2019-02-18T06:54:10.189Z,1013.62
2019-02-18T06:55:10.165Z,1013.62
2019-02-18T06:56:10.151Z,1013.67
2019-02-18T06:57:10.143Z,1013.60
2019-02-18T06:58:10.127Z,1013.58
2019-02-18T06:59:10.115Z,1013.63
2019-02-18T07:00:10.111Z,1013.62
2019-02-18T07:01:10.096Z,1013.60
2019-02-18T07:02:10.092Z,1013.62
2019-02-18T07:03:10.069Z,1013.59
2019-02-18T07:04:10.061Z,1013.59
2019-02-18T07:05:10.059Z,1013.53
2019-02-18T07:06:10.036Z,1013.56
2019-02-18T07:07:10.023Z,1013.57
2019-02-18T07:08:10.014Z,1013.51
2019-02-18T07:09:10.002Z,1013.53
2019-02-18T07:10:09.987Z,1013.54
2019-02-18T07:11:09.980Z,1013.59
2019-02-18T07:12:09.966Z,1013.57
2019-02-18T07:13:09.952Z,1013.55
2019-02-18T07:14:09.943Z,1013.62
2019-02-18T07:15:09.938Z,1013.56
2019-02-18T07:16:09.920Z,1013.54
2019-02-18T07:17:10.542Z,1013.57
2019-02-18T07:18:09.896Z,1013.54
2019-02-18T07:19:09.885Z,1013.53
2019-02-18T07:20:09.875Z,1013.51
2019-02-18T07:21:09.857Z,1013.44
2019-02-18T07:22:09.853Z,1013.48
2019-02-18T07:23:09.838Z,1013.43
2019-02-18T07:24:09.826Z,1013.42
2019-02-18T07:25:09.816Z,1013.42
2019-02-18T07:26:09.809Z,1013.44
2019-02-18T07:27:09.797Z,1013.43
2019-02-18T07:28:09.794Z,1013.44
2019-02-18T07:29:09.777Z,1013.42
2019-02-18T07:30:09.837Z,1013.42
2019-02-18T07:31:09.813Z,1013.41
2019-02-18T07:32:10.218Z,1013.41
2019-02-18T07:33:09.723Z,1013.36
2019-02-18T07:34:09.883Z,1013.40
2019-02-18T07:35:09.827Z,1013.44
2019-02-18T07:36:09.693Z,1013.39
2019-02-18T07:37:09.794Z,1013.40
2019-02-18T07:38:09.725Z,1013.37
2019-02-18T07:39:09.657Z,1013.43
2019-02-18T07:40:09.829Z,1013.45
2019-02-18T07:41:09.641Z,1013.43
2019-02-18T07:42:09.619Z,1013.41
2019-02-18T07:43:09.615Z,1013.43
2019-02-18T07:44:09.604Z,1013.41
2019-02-18T07:45:09.593Z,1013.43
2019-02-18T07:46:09.582Z,1013.42
2019-02-18T07:47:09.572Z,1013.47
2019-02-18T07:48:09.562Z,1013.45
2019-02-18T07:49:09.559Z,1013.49
2019-02-18T07:50:09.541Z,1013.51
2019-02-18T07:51:09.537Z,1013.47
2019-02-18T07:52:09.517Z,1013.46
2019-02-18T07:53:09.505Z,1013.46
2019-02-18T07:54:10.378Z,1013.46
2019-02-18T07:55:09.487Z,1013.43
2019-02-18T07:56:09.475Z,1013.46
2019-02-18T07:57:09.463Z,1013.44
2019-02-18T07:58:09.472Z,1013.44
2019-02-18T07:59:09.440Z,1013.45
2019-02-18T08:00:09.430Z,1013.46
2019-02-18T08:01:09.423Z,1013.50
2019-02-18T08:02:09.412Z,1013.49
2019-02-18T08:03:09.399Z,1013.48
2019-02-18T08:04:09.392Z,1013.51
2019-02-18T08:05:09.386Z,1013.53
2019-02-18T08:06:09.379Z,1013.52
2019-02-18T08:07:09.363Z,1013.53
2019-02-18T08:08:09.353Z,1013.53
2019-02-18T08:09:09.344Z,1013.50
2019-02-18T08:10:12.091Z,1013.54
2019-02-18T08:11:09.321Z,1013.51
2019-02-18T08:12:09.312Z,1013.48
2019-02-18T08:13:09.305Z,1013.48
2019-02-18T08:14:09.299Z,1013.47
2019-02-18T08:15:09.274Z,1013.45
2019-02-18T08:16:09.266Z,1013.49
2019-02-18T08:17:09.258Z,1013.45
2019-02-18T08:18:09.253Z,1013.48
2019-02-18T08:19:09.241Z,1013.48
2019-02-18T08:20:09.238Z,1013.46
2019-02-18T08:21:09.219Z,1013.47
2019-02-18T08:22:09.212Z,1013.43
2019-02-18T08:23:09.219Z,1013.44
2019-02-18T08:24:09.191Z,1013.45
2019-02-18T08:25:09.181Z,1013.49
2019-02-18T08:26:09.171Z,1013.46
2019-02-18T08:27:09.163Z,1013.45
2019-02-18T08:28:09.160Z,1013.46
2019-02-18T08:29:09.142Z,1013.46
2019-02-18T08:30:09.133Z,1013.43
2019-02-18T08:31:09.124Z,1013.44
2019-02-18T08:32:10.778Z,1013.42
2019-02-18T08:33:09.112Z,1013.45
2019-02-18T08:34:09.097Z,1013.46
2019-02-18T08:35:09.085Z,1013.46
2019-02-18T08:36:09.072Z,1013.42
2019-02-18T08:37:09.066Z,1013.40
2019-02-18T08:38:09.057Z,1013.43
2019-02-18T08:39:09.043Z,1013.44
2019-02-18T08:40:09.037Z,1013.44
2019-02-18T08:41:09.046Z,1013.44
2019-02-18T08:42:09.033Z,1013.41
2019-02-18T08:43:09.011Z,1013.38
2019-02-18T08:44:08.995Z,1013.44
2019-02-18T08:45:09.000Z,1013.41
2019-02-18T08:46:08.977Z,1013.43
2019-02-18T08:47:08.969Z,1013.41
2019-02-18T08:48:08.957Z,1013.41
2019-02-18T08:49:08.949Z,1013.40
2019-02-18T08:50:08.944Z,1013.40
2019-02-18T08:51:08.934Z,1013.36
2019-02-18T08:52:08.926Z,1013.39
2019-02-18T08:53:08.927Z,1013.37
2019-02-18T08:54:08.903Z,1013.40
2019-02-18T08:55:08.894Z,1013.39
2019-02-18T08:56:08.884Z,1013.41
2019-02-18T08:57:08.884Z,1013.41
2019-02-18T08:58:08.869Z,1013.38
2019-02-18T08:59:11.058Z,1013.42
2019-02-18T09:00:08.845Z,1013.42
2019-02-18T09:01:08.839Z,1013.42
2019-02-18T09:02:08.829Z,1013.38
2019-02-18T09:03:08.822Z,1013.40
2019-02-18T09:04:08.817Z,1013.41
2019-02-18T09:05:08.827Z,1013.41
2019-02-18T09:06:08.789Z,1013.41
2019-02-18T09:07:08.785Z,1013.42
2019-02-18T09:08:08.775Z,1013.45
2019-02-18T09:09:08.764Z,1013.43
2019-02-18T09:10:08.753Z,1013.39
2019-02-18T09:11:08.759Z,1013.39
2019-02-18T09:12:08.744Z,1013.39
2019-02-18T09:13:08.733Z,1013.40
2019-02-18T09:14:08.722Z,1013.43
2019-02-18T09:15:08.715Z,1013.45
2019-02-18T09:16:08.710Z,1013.38
2019-02-18T09:17:08.702Z,1013.42
2019-02-18T09:18:08.687Z,1013.39
2019-02-18T09:19:08.675Z,1013.41
2019-02-18T09:20:08.673Z,1013.43
2019-02-18T09:21:08.650Z,1013.39
2019-02-18T09:22:08.646Z,1013.38
2019-02-18T09:23:08.644Z,1013.44
2019-02-18T09:24:08.640Z,1013.47
2019-02-18T09:25:08.628Z,1013.44
2019-02-18T09:26:08.617Z,1013.44
2019-02-18T09:27:08.604Z,1013.45
2019-02-18T09:28:08.609Z,1013.38
2019-02-18T09:29:08.589Z,1013.38
2019-02-18T09:30:08.583Z,1013.36
2019-02-18T09:31:08.572Z,1013.37
2019-02-18T09:32:08.563Z,1013.38
2019-02-18T09:33:08.554Z,1013.32
2019-02-18T09:34:08.556Z,1013.34
2019-02-18T09:35:08.539Z,1013.32
2019-02-18T09:36:08.529Z,1013.32
2019-02-18T09:37:08.532Z,1013.32
2019-02-18T09:38:08.511Z,1013.31
2019-02-18T09:39:08.516Z,1013.28
2019-02-18T09:40:08.489Z,1013.26
2019-02-18T09:41:08.486Z,1013.29
2019-02-18T09:42:08.480Z,1013.25
2019-02-18T09:43:08.473Z,1013.24
2019-02-18T09:44:08.462Z,1013.26
2019-02-18T09:45:08.457Z,1013.25
2019-02-18T09:46:08.442Z,1013.24
2019-02-18T09:47:08.436Z,1013.23
2019-02-18T09:48:08.426Z,1013.23
2019-02-18T09:49:08.424Z,1013.21
2019-02-18T09:50:08.411Z,1013.24
2019-02-18T09:51:08.402Z,1013.22
2019-02-18T09:52:08.393Z,1013.26
2019-02-18T09:53:08.388Z,1013.26
2019-02-18T09:54:08.383Z,1013.23
2019-02-18T09:55:08.381Z,1013.23
2019-02-18T09:56:08.363Z,1013.20
2019-02-18T09:57:08.355Z,1013.23
2019-02-18T09:58:08.348Z,1013.16
2019-02-18T09:59:08.338Z,1013.18
2019-02-18T10:00:08.321Z,1013.16
2019-02-18T10:01:08.321Z,1013.16
2019-02-18T10:02:08.315Z,1013.12
2019-02-18T10:03:08.308Z,1013.13
2019-02-18T10:04:08.298Z,1013.15
2019-02-18T10:05:08.338Z,1013.11
2019-02-18T10:06:08.280Z,1013.10
2019-02-18T10:07:08.287Z,1013.11
2019-02-18T10:08:08.264Z,1013.13
2019-02-18T10:09:08.265Z,1013.15
2019-02-18T10:10:08.249Z,1013.07
2019-02-18T10:11:08.241Z,1013.07
2019-02-18T10:12:17.785Z,1013.06
2019-02-18T10:13:08.224Z,1013.08
2019-02-18T10:14:08.218Z,1013.06
2019-02-18T10:15:08.210Z,1013.01
2019-02-18T10:16:08.201Z,1013.03
2019-02-18T10:17:08.214Z,1013.03
2019-02-18T10:18:08.183Z,1013.03
2019-02-18T10:19:08.176Z,1013.01
2019-02-18T10:20:08.171Z,1013.03
2019-02-18T10:21:08.173Z,1013.02
2019-02-18T10:22:08.154Z,1012.99
2019-02-18T10:23:08.155Z,1012.96
2019-02-18T10:24:08.143Z,1012.98
2019-02-18T10:25:08.128Z,1013.01
2019-02-18T10:26:08.127Z,1012.97
2019-02-18T10:27:08.130Z,1012.97
2019-02-18T10:28:08.110Z,1012.99
2019-02-18T10:29:08.099Z,1012.97
2019-02-18T10:30:08.094Z,1012.97
2019-02-18T10:31:08.084Z,1012.96
2019-02-18T10:32:08.067Z,1012.95
2019-02-18T10:33:08.068Z,1012.97
2019-02-18T10:34:08.068Z,1012.92
2019-02-18T10:35:08.056Z,1012.93
2019-02-18T10:36:08.047Z,1012.92
2019-02-18T10:37:08.038Z,1012.91
2019-02-18T10:38:08.035Z,1012.89
2019-02-18T10:39:08.029Z,1012.91
2019-02-18T10:40:08.020Z,1012.90
2019-02-18T10:41:08.022Z,1012.87
2019-02-18T10:42:08.006Z,1012.89
2019-02-18T10:43:08.000Z,1012.90
2019-02-18T10:44:07.986Z,1012.85
2019-02-18T10:45:08.002Z,1012.85
2019-02-18T10:46:07.974Z,1012.88
2019-02-18T10:47:07.967Z,1012.87
2019-02-18T10:48:07.969Z,1012.84
2019-02-18T10:49:18.862Z,1012.82
2019-02-18T10:50:07.943Z,1012.85
2019-02-18T10:51:07.937Z,1012.84
2019-02-18T10:52:07.935Z,1012.79
2019-02-18T10:53:07.920Z,1012.82
2019-02-18T10:54:07.915Z,1012.81
2019-02-18T10:55:07.911Z,1012.80
2019-02-18T10:56:07.899Z,1012.77
2019-02-18T10:57:07.891Z,1012.78
2019-02-18T10:58:07.886Z,1012.78
2019-02-18T10:59:07.884Z,1012.70
2019-02-18T11:00:07.872Z,1012.69
2019-02-18T11:01:07.877Z,1012.68
2019-02-18T11:02:07.885Z,1012.62
2019-02-18T11:03:07.858Z,1012.64
2019-02-18T11:04:07.854Z,1012.61
2019-02-18T11:05:07.852Z,1012.61
2019-02-18T11:06:09.360Z,1012.62
2019-02-18T11:07:07.833Z,1012.61
2019-02-18T11:08:07.842Z,1012.60
2019-02-18T11:09:07.810Z,1012.60
2019-02-18T11:10:07.808Z,1012.55
2019-02-18T11:11:16.681Z,1012.56
2019-02-18T11:12:07.806Z,1012.55
2019-02-18T11:13:07.782Z,1012.49
2019-02-18T11:14:07.776Z,1012.55
2019-02-18T11:15:07.770Z,1012.53
2019-02-18T11:16:07.759Z,1012.48
2019-02-18T11:17:07.767Z,1012.51
2019-02-18T11:18:07.765Z,1012.49
2019-02-18T11:19:07.740Z,1012.48
2019-02-18T11:20:07.733Z,1012.44
2019-02-18T11:21:07.726Z,1012.44
2019-02-18T11:22:07.721Z,1012.39
2019-02-18T11:23:11.785Z,1012.41
2019-02-18T11:24:08.798Z,1012.39
2019-02-18T11:25:09.107Z,1012.34
2019-02-18T11:26:08.284Z,1012.37
2019-02-18T11:27:07.685Z,1012.32
2019-02-18T11:28:07.689Z,1012.32
2019-02-18T11:29:08.030Z,1012.30
2019-02-18T11:30:07.670Z,1012.29
2019-02-18T11:31:07.664Z,1012.32
2019-02-18T11:32:07.658Z,1012.29
2019-02-18T11:33:07.648Z,1012.30
2019-02-18T11:34:07.643Z,1012.28
2019-02-18T11:35:07.632Z,1012.22
2019-02-18T11:36:07.646Z,1012.26
2019-02-18T11:37:07.632Z,1012.26
2019-02-18T11:38:07.614Z,1012.20
2019-02-18T11:39:07.621Z,1012.21
2019-02-18T11:40:07.612Z,1012.19
2019-02-18T11:41:07.600Z,1012.17
2019-02-18T11:42:07.617Z,1012.14
2019-02-18T11:43:07.609Z,1012.16
2019-02-18T11:44:07.573Z,1012.14
2019-02-18T11:45:07.571Z,1012.13
2019-02-18T11:46:07.576Z,1012.07
2019-02-18T11:47:07.567Z,1012.03
2019-02-18T11:48:07.564Z,1012.05
2019-02-18T11:49:07.559Z,1012.02
2019-02-18T11:50:07.543Z,1012.01
2019-02-18T11:51:07.535Z,1012.02
2019-02-18T11:52:07.524Z,1011.97
2019-02-18T11:53:07.526Z,1011.97
2019-02-18T11:54:07.511Z,1011.95
2019-02-18T11:55:07.503Z,1011.92
2019-02-18T11:56:07.504Z,1011.89
2019-02-18T11:57:07.491Z,1011.93
2019-02-18T11:58:07.495Z,1011.89
2019-02-18T11:59:07.485Z,1011.89
2019-02-18T12:00:07.479Z,1011.92
2019-02-18T12:01:07.472Z,1011.85
2019-02-18T12:02:07.461Z,1011.90
2019-02-18T12:03:12.303Z,1011.87
2019-02-18T12:04:07.455Z,1011.83
2019-02-18T12:05:07.448Z,1011.84
2019-02-18T12:06:07.445Z,1011.85
2019-02-18T12:07:07.433Z,1011.79
2019-02-18T12:08:07.428Z,1011.83
2019-02-18T12:09:07.640Z,1011.84
2019-02-18T12:10:07.432Z,1011.79